sensor_id;sensor_type;location;lat;lon;timestamp;pressure;altitude;pressure_sealevel;temperature;humidity
42761;BME280;31672;47.638;19.026;2022-09-09T00:07:33;99794.25;;;16.18;100.00
42761;BME280;31672;47.638;19.026;2022-09-09T00:18:45;99796.78;;;16.06;100.00
42761;BME280;31672;47.638;19.026;2022-09-09T00:23:47;99796.19;;;16.04;100.00
42761;BME280;31672;47.638;19.026;2022-09-09T00:28:53;99787.31;;;16.03;100.00
42761;BME280;31672;47.638;19.026;2022-09-09T00:34:23;99789.19;;;16.03;100.00
42761;BME280;31672;47.638;19.026;2022-09-09T00:39:39;99792.25;;;16.06;100.00
42761;BME280;31672;47.638;19.026;2022-09-09T00:45:29;99793.28;;;16.05;100.00
42761;BME280;31672;47.638;19.026;2022-09-09T00:55:49;99814.50;;;16.07;100.00
42761;BME280;31672;47.638;19.026;2022-09-09T01:01:12;99803.41;;;16.03;100.00
42761;BME280;31672;47.638;19.026;2022-09-09T01:06:35;99810.84;;;16.01;100.00
42761;BME280;31672;47.638;19.026;2022-09-09T01:12:16;99814.94;;;16.04;100.00
42761;BME280;31672;47.638;19.026;2022-09-09T01:17:51;99817.84;;;16.02;100.00
42761;BME280;31672;47.638;19.026;2022-09-09T01:28:27;99809.38;;;15.99;100.00
42761;BME280;31672;47.638;19.026;2022-09-09T01:33:31;99814.53;;;16.00;100.00
42761;BME280;31672;47.638;19.026;2022-09-09T01:38:35;99809.81;;;16.02;100.00
42761;BME280;31672;47.638;19.026;2022-09-09T01:43:38;99814.50;;;16.07;100.00
42761;BME280;31672;47.638;19.026;2022-09-09T01:48:41;99810.81;;;16.08;100.00
42761;BME280;31672;47.638;19.026;2022-09-09T01:53:46;99810.59;;;16.10;100.00
42761;BME280;31672;47.638;19.026;2022-09-09T02:03:57;99811.66;;;16.02;100.00
42761;BME280;31672;47.638;19.026;2022-09-09T02:09:05;99812.88;;;15.99;100.00
42761;BME280;31672;47.638;19.026;2022-09-09T02:14:18;99821.56;;;15.95;100.00
42761;BME280;31672;47.638;19.026;2022-09-09T02:19:31;99834.34;;;15.93;100.00
42761;BME280;31672;47.638;19.026;2022-09-09T02:24:37;99842.19;;;15.94;100.00
42761;BME280;31672;47.638;19.026;2022-09-09T02:29:42;99825.50;;;15.92;100.00
42761;BME280;31672;47.638;19.026;2022-09-09T02:35:00;99826.53;;;15.91;100.00
42761;BME280;31672;47.638;19.026;2022-09-09T02:40:11;99833.75;;;15.91;100.00
42761;BME280;31672;47.638;19.026;2022-09-09T02:45:19;99840.16;;;15.90;100.00
42761;BME280;31672;47.638;19.026;2022-09-09T02:50:35;99833.56;;;15.86;100.00
42761;BME280;31672;47.638;19.026;2022-09-09T02:55:48;99830.28;;;15.84;100.00
42761;BME280;31672;47.638;19.026;2022-09-09T03:00:52;99830.91;;;15.79;100.00
42761;BME280;31672;47.638;19.026;2022-09-09T03:05:55;99836.03;;;15.81;100.00
42761;BME280;31672;47.638;19.026;2022-09-09T03:11:00;99821.59;;;15.82;100.00
42761;BME280;31672;47.638;19.026;2022-09-09T03:16:06;99820.78;;;15.81;100.00
42761;BME280;31672;47.638;19.026;2022-09-09T03:21:09;99825.94;;;15.83;100.00
42761;BME280;31672;47.638;19.026;2022-09-09T03:26:12;99827.38;;;15.85;100.00
42761;BME280;31672;47.638;19.026;2022-09-09T03:31:17;99831.06;;;15.91;100.00
42761;BME280;31672;47.638;19.026;2022-09-09T03:36:22;99821.97;;;15.98;100.00
42761;BME280;31672;47.638;19.026;2022-09-09T03:41:25;99834.13;;;16.08;99.48
42761;BME280;31672;47.638;19.026;2022-09-09T03:46:28;99837.16;;;16.11;98.49
42761;BME280;31672;47.638;19.026;2022-09-09T03:51:31;99830.59;;;16.14;97.42
42761;BME280;31672;47.638;19.026;2022-09-09T03:56:34;99843.53;;;16.17;97.40
42761;BME280;31672;47.638;19.026;2022-09-09T04:01:37;99846.44;;;16.15;97.10
42761;BME280;31672;47.638;19.026;2022-09-09T04:06:40;99837.16;;;16.11;97.04
42761;BME280;31672;47.638;19.026;2022-09-09T04:11:43;99837.63;;;16.08;97.05
42761;BME280;31672;47.638;19.026;2022-09-09T04:16:46;99840.91;;;16.03;97.21
42761;BME280;31672;47.638;19.026;2022-09-09T04:21:49;99851.03;;;16.01;97.25
42761;BME280;31672;47.638;19.026;2022-09-09T04:26:53;99854.94;;;15.99;97.30
42761;BME280;31672;47.638;19.026;2022-09-09T04:31:56;99856.00;;;15.98;97.60
42761;BME280;31672;47.638;19.026;2022-09-09T04:37:01;99850.63;;;15.98;97.64
42761;BME280;31672;47.638;19.026;2022-09-09T04:42:03;99850.41;;;15.99;98.03
42761;BME280;31672;47.638;19.026;2022-09-09T04:47:06;99854.09;;;16.05;98.12
42761;BME280;31672;47.638;19.026;2022-09-09T04:52:09;99853.69;;;16.08;98.51
42761;BME280;31672;47.638;19.026;2022-09-09T04:57:12;99849.75;;;16.11;98.59
42761;BME280;31672;47.638;19.026;2022-09-09T05:02:20;99861.91;;;16.13;98.82
42761;BME280;31672;47.638;19.026;2022-09-09T05:07:23;99861.72;;;16.15;99.56
42761;BME280;31672;47.638;19.026;2022-09-09T05:12:26;99871.16;;;16.17;99.79
42761;BME280;31672;47.638;19.026;2022-09-09T05:17:29;99882.09;;;16.22;99.85
42761;BME280;31672;47.638;19.026;2022-09-09T05:22:31;99869.69;;;16.28;100.00
42761;BME280;31672;47.638;19.026;2022-09-09T05:27:35;99878.97;;;16.32;100.00
42761;BME280;31672;47.638;19.026;2022-09-09T05:32:38;99883.25;;;16.40;100.00
42761;BME280;31672;47.638;19.026;2022-09-09T05:37:40;99872.50;;;16.46;100.00
42761;BME280;31672;47.638;19.026;2022-09-09T05:42:43;99856.13;;;16.54;100.00
42761;BME280;31672;47.638;19.026;2022-09-09T05:47:52;99874.47;;;16.64;100.00
42761;BME280;31672;47.638;19.026;2022-09-09T05:52:57;99858.75;;;16.74;100.00
42761;BME280;31672;47.638;19.026;2022-09-09T05:58:00;99867.75;;;16.87;100.00
42761;BME280;31672;47.638;19.026;2022-09-09T06:03:03;99862.06;;;17.01;100.00
42761;BME280;31672;47.638;19.026;2022-09-09T06:08:06;99869.19;;;17.14;100.00
42761;BME280;31672;47.638;19.026;2022-09-09T06:13:09;99871.34;;;17.30;100.00
42761;BME280;31672;47.638;19.026;2022-09-09T06:18:12;99865.63;;;17.45;100.00
42761;BME280;31672;47.638;19.026;2022-09-09T06:23:15;99864.91;;;17.56;100.00
42761;BME280;31672;47.638;19.026;2022-09-09T06:28:18;99880.50;;;17.66;99.46
42761;BME280;31672;47.638;19.026;2022-09-09T06:33:21;99880.47;;;17.73;98.59
42761;BME280;31672;47.638;19.026;2022-09-09T06:38:24;99881.84;;;17.82;97.43
42761;BME280;31672;47.638;19.026;2022-09-09T06:43:28;99886.09;;;17.89;96.17
42761;BME280;31672;47.638;19.026;2022-09-09T06:48:33;99885.13;;;18.02;96.12
42761;BME280;31672;47.638;19.026;2022-09-09T06:53:38;99891.88;;;18.11;96.63
42761;BME280;31672;47.638;19.026;2022-09-09T06:58:42;99889.22;;;18.23;96.46
42761;BME280;31672;47.638;19.026;2022-09-09T07:03:50;99890.81;;;18.31;97.01
42761;BME280;31672;47.638;19.026;2022-09-09T07:08:56;99891.38;;;18.33;96.09
42761;BME280;31672;47.638;19.026;2022-09-09T07:14:00;99900.50;;;18.32;95.29
42761;BME280;31672;47.638;19.026;2022-09-09T07:19:04;99900.28;;;18.33;95.42
42761;BME280;31672;47.638;19.026;2022-09-09T07:24:07;99894.72;;;18.46;95.39
42761;BME280;31672;47.638;19.026;2022-09-09T07:29:16;99887.66;;;18.64;95.73
42761;BME280;31672;47.638;19.026;2022-09-09T07:34:22;99903.53;;;18.72;94.56
42761;BME280;31672;47.638;19.026;2022-09-09T07:39:25;99899.75;;;18.91;93.72
42761;BME280;31672;47.638;19.026;2022-09-09T07:44:28;99896.88;;;19.16;93.39
42761;BME280;31672;47.638;19.026;2022-09-09T07:49:31;99892.34;;;19.52;90.58
42761;BME280;31672;47.638;19.026;2022-09-09T07:54:34;99893.56;;;19.80;88.70
42761;BME280;31672;47.638;19.026;2022-09-09T07:59:37;99891.88;;;20.02;89.11
42761;BME280;31672;47.638;19.026;2022-09-09T08:04:40;99897.50;;;20.12;85.53
42761;BME280;31672;47.638;19.026;2022-09-09T08:09:43;99887.75;;;20.23;84.97
42761;BME280;31672;47.638;19.026;2022-09-09T08:14:46;99896.03;;;20.33;85.11
42761;BME280;31672;47.638;19.026;2022-09-09T08:19:49;99894.59;;;20.42;83.31
42761;BME280;31672;47.638;19.026;2022-09-09T08:24:52;99891.31;;;20.52;82.82
42761;BME280;31672;47.638;19.026;2022-09-09T08:29:55;99888.59;;;20.64;81.79
42761;BME280;31672;47.638;19.026;2022-09-09T08:34:59;99880.66;;;20.74;80.76
42761;BME280;31672;47.638;19.026;2022-09-09T08:40:03;99874.13;;;20.87;79.32
42761;BME280;31672;47.638;19.026;2022-09-09T08:45:43;99865.31;;;21.08;79.32
42761;BME280;31672;47.638;19.026;2022-09-09T08:50:52;99879.88;;;21.35;78.76
42761;BME280;31672;47.638;19.026;2022-09-09T08:55:58;99883.13;;;21.54;78.33
42761;BME280;31672;47.638;19.026;2022-09-09T09:11:53;99872.75;;;21.85;72.23
42761;BME280;31672;47.638;19.026;2022-09-09T09:17:06;99877.56;;;21.83;70.10
42761;BME280;31672;47.638;19.026;2022-09-09T09:38:23;99860.50;;;22.43;67.28
42761;BME280;31672;47.638;19.026;2022-09-09T09:43:54;99853.50;;;22.47;66.99
42761;BME280;31672;47.638;19.026;2022-09-09T09:49:03;99854.16;;;22.59;67.09
42761;BME280;31672;47.638;19.026;2022-09-09T10:04:41;99861.69;;;23.06;66.83
42761;BME280;31672;47.638;19.026;2022-09-09T10:09:44;99859.19;;;23.32;67.36
42761;BME280;31672;47.638;19.026;2022-09-09T10:15:37;99854.56;;;23.64;65.80
42761;BME280;31672;47.638;19.026;2022-09-09T10:26:19;99843.56;;;23.91;59.29
42761;BME280;31672;47.638;19.026;2022-09-09T10:36:59;99845.19;;;24.50;61.55
42761;BME280;31672;47.638;19.026;2022-09-09T10:42:12;99839.25;;;24.83;57.94
42761;BME280;31672;47.638;19.026;2022-09-09T10:58:25;99839.78;;;25.67;53.44
42761;BME280;31672;47.638;19.026;2022-09-09T11:03:31;99832.53;;;26.17;53.20
42761;BME280;31672;47.638;19.026;2022-09-09T11:08:38;99835.25;;;26.66;50.41
42761;BME280;31672;47.638;19.026;2022-09-09T11:14:14;99837.25;;;27.29;46.89
42761;BME280;31672;47.638;19.026;2022-09-09T11:19:35;99823.50;;;27.92;47.97
42761;BME280;31672;47.638;19.026;2022-09-09T11:24:44;99822.41;;;28.36;41.38
42761;BME280;31672;47.638;19.026;2022-09-09T11:30:22;99819.53;;;28.46;44.04
42761;BME280;31672;47.638;19.026;2022-09-09T11:41:14;99816.34;;;27.96;41.91
42761;BME280;31672;47.638;19.026;2022-09-09T11:46:34;99821.91;;;27.33;41.25
42761;BME280;31672;47.638;19.026;2022-09-09T11:51:39;99814.13;;;26.87;42.00
42761;BME280;31672;47.638;19.026;2022-09-09T11:56:44;99805.31;;;26.61;42.76
42761;BME280;31672;47.638;19.026;2022-09-09T12:02:03;99802.44;;;26.42;44.00
42761;BME280;31672;47.638;19.026;2022-09-09T12:07:32;99805.84;;;26.14;44.29
42761;BME280;31672;47.638;19.026;2022-09-09T12:12:37;99814.72;;;25.75;43.87
42761;BME280;31672;47.638;19.026;2022-09-09T12:17:52;99807.44;;;25.45;43.95
42761;BME280;31672;47.638;19.026;2022-09-09T12:28:47;99820.16;;;25.60;44.48
42761;BME280;31672;47.638;19.026;2022-09-09T12:33:53;99799.78;;;25.57;43.99
42761;BME280;31672;47.638;19.026;2022-09-09T12:38:59;99797.28;;;25.66;44.09
42761;BME280;31672;47.638;19.026;2022-09-09T12:44:12;99796.22;;;25.67;42.49
42761;BME280;31672;47.638;19.026;2022-09-09T12:49:36;99809.28;;;25.55;43.35
42761;BME280;31672;47.638;19.026;2022-09-09T12:54:45;99786.47;;;25.56;45.46
42761;BME280;31672;47.638;19.026;2022-09-09T13:00:07;99785.59;;;25.66;44.97
42761;BME280;31672;47.638;19.026;2022-09-09T13:05:38;99772.78;;;25.71;45.09
42761;BME280;31672;47.638;19.026;2022-09-09T13:10:46;99757.28;;;25.77;43.43
42761;BME280;31672;47.638;19.026;2022-09-09T13:16:06;99749.69;;;25.63;43.10
42761;BME280;31672;47.638;19.026;2022-09-09T13:21:11;99747.00;;;25.53;43.65
42761;BME280;31672;47.638;19.026;2022-09-09T13:26:26;99742.97;;;25.46;43.88
42761;BME280;31672;47.638;19.026;2022-09-09T13:31:33;99730.78;;;25.33;43.78
42761;BME280;31672;47.638;19.026;2022-09-09T13:36:36;99730.50;;;25.24;44.27
42761;BME280;31672;47.638;19.026;2022-09-09T13:41:44;99749.28;;;25.16;43.10
42761;BME280;31672;47.638;19.026;2022-09-09T13:46:47;99744.13;;;25.14;43.91
42761;BME280;31672;47.638;19.026;2022-09-09T13:51:51;99734.88;;;25.15;43.90
42761;BME280;31672;47.638;19.026;2022-09-09T13:56:56;99729.44;;;25.15;43.28
42761;BME280;31672;47.638;19.026;2022-09-09T14:02:00;99730.53;;;25.19;45.45
42761;BME280;31672;47.638;19.026;2022-09-09T14:07:04;99719.09;;;25.22;44.64
42761;BME280;31672;47.638;19.026;2022-09-09T14:12:11;99713.94;;;25.31;43.59
42761;BME280;31672;47.638;19.026;2022-09-09T14:17:14;99710.34;;;25.41;43.62
42761;BME280;31672;47.638;19.026;2022-09-09T14:22:17;99702.44;;;25.49;42.91
42761;BME280;31672;47.638;19.026;2022-09-09T14:27:20;99703.25;;;25.50;42.02
42761;BME280;31672;47.638;19.026;2022-09-09T14:32:23;99690.78;;;25.39;42.18
42761;BME280;31672;47.638;19.026;2022-09-09T14:37:27;99689.44;;;25.31;42.61
42761;BME280;31672;47.638;19.026;2022-09-09T14:42:31;99693.25;;;25.25;43.85
42761;BME280;31672;47.638;19.026;2022-09-09T14:47:34;99688.38;;;25.17;44.00
42761;BME280;31672;47.638;19.026;2022-09-09T14:52:36;99685.44;;;25.08;43.00
42761;BME280;31672;47.638;19.026;2022-09-09T14:57:39;99686.78;;;24.95;42.58
42761;BME280;31672;47.638;19.026;2022-09-09T15:02:42;99691.69;;;24.88;44.02
42761;BME280;31672;47.638;19.026;2022-09-09T15:07:45;99700.13;;;24.81;43.23
42761;BME280;31672;47.638;19.026;2022-09-09T15:12:48;99708.81;;;24.78;41.64
42761;BME280;31672;47.638;19.026;2022-09-09T15:17:51;99709.06;;;24.77;43.22
42761;BME280;31672;47.638;19.026;2022-09-09T15:22:53;99712.06;;;24.80;42.01
42761;BME280;31672;47.638;19.026;2022-09-09T15:27:56;99698.50;;;24.80;43.89
42761;BME280;31672;47.638;19.026;2022-09-09T15:32:59;99707.72;;;24.79;45.03
42761;BME280;31672;47.638;19.026;2022-09-09T15:38:03;99705.28;;;24.78;45.36
42761;BME280;31672;47.638;19.026;2022-09-09T15:43:08;99693.34;;;24.69;43.39
42761;BME280;31672;47.638;19.026;2022-09-09T15:48:12;99694.16;;;24.79;44.69
42761;BME280;31672;47.638;19.026;2022-09-09T15:53:15;99704.16;;;25.04;43.99
42761;BME280;31672;47.638;19.026;2022-09-09T15:58:17;99700.63;;;25.04;44.78
42761;BME280;31672;47.638;19.026;2022-09-09T16:03:21;99696.03;;;24.89;44.13
42761;BME280;31672;47.638;19.026;2022-09-09T16:08:24;99702.88;;;24.71;45.91
42761;BME280;31672;47.638;19.026;2022-09-09T16:13:27;99712.63;;;24.52;47.62
42761;BME280;31672;47.638;19.026;2022-09-09T16:18:49;99720.72;;;24.26;48.75
42761;BME280;31672;47.638;19.026;2022-09-09T16:23:54;99721.78;;;24.05;50.09
42761;BME280;31672;47.638;19.026;2022-09-09T16:28:57;99718.44;;;23.77;51.18
42761;BME280;31672;47.638;19.026;2022-09-09T16:34:04;99719.41;;;23.56;52.36
42761;BME280;31672;47.638;19.026;2022-09-09T16:39:15;99725.28;;;23.38;53.64
42761;BME280;31672;47.638;19.026;2022-09-09T16:44:18;99723.84;;;23.20;54.65
42761;BME280;31672;47.638;19.026;2022-09-09T16:49:22;99716.41;;;23.00;54.98
42761;BME280;31672;47.638;19.026;2022-09-09T16:54:24;99725.22;;;22.85;55.81
42761;BME280;31672;47.638;19.026;2022-09-09T16:59:29;99728.31;;;22.67;56.78
42761;BME280;31672;47.638;19.026;2022-09-09T17:04:34;99728.41;;;22.45;57.10
42761;BME280;31672;47.638;19.026;2022-09-09T17:09:37;99727.72;;;22.28;57.82
42761;BME280;31672;47.638;19.026;2022-09-09T17:14:39;99738.03;;;22.09;57.54
42761;BME280;31672;47.638;19.026;2022-09-09T17:19:42;99744.59;;;21.91;57.78
42761;BME280;31672;47.638;19.026;2022-09-09T17:24:46;99738.78;;;21.77;58.17
42761;BME280;31672;47.638;19.026;2022-09-09T17:29:49;99749.41;;;21.62;58.28
42761;BME280;31672;47.638;19.026;2022-09-09T17:34:52;99746.47;;;21.47;58.72
42761;BME280;31672;47.638;19.026;2022-09-09T17:39:55;99749.28;;;21.35;59.42
42761;BME280;31672;47.638;19.026;2022-09-09T17:44:58;99751.44;;;21.16;60.03
42761;BME280;31672;47.638;19.026;2022-09-09T17:50:01;99754.19;;;20.99;59.23
42761;BME280;31672;47.638;19.026;2022-09-09T17:55:05;99757.78;;;20.88;60.24
42761;BME280;31672;47.638;19.026;2022-09-09T18:00:09;99761.69;;;20.80;61.00
42761;BME280;31672;47.638;19.026;2022-09-09T18:05:12;99772.56;;;20.69;61.11
42761;BME280;31672;47.638;19.026;2022-09-09T18:10:16;99774.03;;;20.60;61.20
42761;BME280;31672;47.638;19.026;2022-09-09T18:15:19;99783.44;;;20.57;60.93
42761;BME280;31672;47.638;19.026;2022-09-09T18:20:42;99760.97;;;20.51;60.93
42761;BME280;31672;47.638;19.026;2022-09-09T18:25:46;99760.88;;;20.46;61.12
42761;BME280;31672;47.638;19.026;2022-09-09T18:30:48;99768.84;;;20.41;61.16
42761;BME280;31672;47.638;19.026;2022-09-09T18:35:52;99765.56;;;20.39;61.38
42761;BME280;31672;47.638;19.026;2022-09-09T18:40:54;99765.22;;;20.36;61.59
42761;BME280;31672;47.638;19.026;2022-09-09T18:46:03;99766.44;;;20.28;61.67
42761;BME280;31672;47.638;19.026;2022-09-09T18:51:09;99775.00;;;20.25;62.04
42761;BME280;31672;47.638;19.026;2022-09-09T18:56:12;99780.28;;;20.20;62.56
42761;BME280;31672;47.638;19.026;2022-09-09T19:01:15;99775.28;;;20.12;62.92
42761;BME280;31672;47.638;19.026;2022-09-09T19:06:21;99768.06;;;20.00;62.66
42761;BME280;31672;47.638;19.026;2022-09-09T19:11:27;99778.75;;;19.95;63.02
42761;BME280;31672;47.638;19.026;2022-09-09T19:16:33;99778.31;;;19.87;63.66
42761;BME280;31672;47.638;19.026;2022-09-09T19:21:39;99779.97;;;19.76;64.78
42761;BME280;31672;47.638;19.026;2022-09-09T19:26:47;99781.88;;;19.64;65.43
42761;BME280;31672;47.638;19.026;2022-09-09T19:31:53;99788.88;;;19.53;65.98
42761;BME280;31672;47.638;19.026;2022-09-09T19:37:16;99794.03;;;19.43;66.76
42761;BME280;31672;47.638;19.026;2022-09-09T19:42:20;99791.13;;;19.33;67.35
42761;BME280;31672;47.638;19.026;2022-09-09T19:47:23;99802.50;;;19.23;67.36
42761;BME280;31672;47.638;19.026;2022-09-09T19:52:26;99793.72;;;19.16;68.32
42761;BME280;31672;47.638;19.026;2022-09-09T19:57:28;99789.84;;;19.12;68.73
42761;BME280;31672;47.638;19.026;2022-09-09T20:02:32;99789.00;;;19.11;69.83
42761;BME280;31672;47.638;19.026;2022-09-09T20:07:35;99795.59;;;19.15;70.68
42761;BME280;31672;47.638;19.026;2022-09-09T20:12:38;99800.84;;;19.22;71.34
42761;BME280;31672;47.638;19.026;2022-09-09T20:17:40;99804.13;;;19.24;72.39
42761;BME280;31672;47.638;19.026;2022-09-09T20:22:44;99808.56;;;19.30;73.00
42761;BME280;31672;47.638;19.026;2022-09-09T20:27:46;99807.06;;;19.34;73.89
42761;BME280;31672;47.638;19.026;2022-09-09T20:32:50;99811.16;;;19.37;74.46
42761;BME280;31672;47.638;19.026;2022-09-09T20:37:53;99809.31;;;19.37;75.51
42761;BME280;31672;47.638;19.026;2022-09-09T20:42:56;99809.63;;;19.41;76.12
42761;BME280;31672;47.638;19.026;2022-09-09T20:47:59;99811.50;;;19.40;76.65
42761;BME280;31672;47.638;19.026;2022-09-09T20:53:02;99804.59;;;19.44;77.03
42761;BME280;31672;47.638;19.026;2022-09-09T20:58:05;99791.72;;;19.46;77.40
42761;BME280;31672;47.638;19.026;2022-09-09T21:03:08;99797.09;;;19.46;77.69
42761;BME280;31672;47.638;19.026;2022-09-09T21:08:11;99778.94;;;19.42;78.61
42761;BME280;31672;47.638;19.026;2022-09-09T21:13:14;99778.59;;;19.38;79.13
42761;BME280;31672;47.638;19.026;2022-09-09T21:18:18;99779.06;;;19.35;79.91
42761;BME280;31672;47.638;19.026;2022-09-09T21:23:21;99774.16;;;19.32;80.67
42761;BME280;31672;47.638;19.026;2022-09-09T21:28:24;99771.47;;;19.32;81.70
42761;BME280;31672;47.638;19.026;2022-09-09T21:33:27;99786.56;;;19.33;82.05
42761;BME280;31672;47.638;19.026;2022-09-09T21:38:30;99783.63;;;19.35;82.51
42761;BME280;31672;47.638;19.026;2022-09-09T21:43:34;99780.69;;;19.36;83.50
42761;BME280;31672;47.638;19.026;2022-09-09T21:48:37;99782.81;;;19.34;84.26
42761;BME280;31672;47.638;19.026;2022-09-09T21:53:41;99779.53;;;19.32;84.59
42761;BME280;31672;47.638;19.026;2022-09-09T21:58:45;99763.97;;;19.34;84.82
42761;BME280;31672;47.638;19.026;2022-09-09T22:03:49;99769.09;;;19.36;85.62
42761;BME280;31672;47.638;19.026;2022-09-09T22:08:52;99762.91;;;19.35;85.53
42761;BME280;31672;47.638;19.026;2022-09-09T22:14:01;99765.25;;;19.32;86.01
42761;BME280;31672;47.638;19.026;2022-09-09T22:19:03;99769.72;;;19.26;86.60
42761;BME280;31672;47.638;19.026;2022-09-09T22:24:06;99771.59;;;19.25;86.93
42761;BME280;31672;47.638;19.026;2022-09-09T22:29:09;99768.28;;;19.23;87.31
42761;BME280;31672;47.638;19.026;2022-09-09T22:34:12;99766.91;;;19.21;87.89
42761;BME280;31672;47.638;19.026;2022-09-09T22:39:16;99753.31;;;19.16;88.29
42761;BME280;31672;47.638;19.026;2022-09-09T22:44:19;99756.94;;;19.10;88.43
42761;BME280;31672;47.638;19.026;2022-09-09T22:49:22;99751.44;;;19.05;89.00
42761;BME280;31672;47.638;19.026;2022-09-09T22:54:25;99746.53;;;19.02;89.67
42761;BME280;31672;47.638;19.026;2022-09-09T22:59:28;99759.06;;;18.96;89.92
42761;BME280;31672;47.638;19.026;2022-09-09T23:04:31;99750.25;;;18.89;90.22
42761;BME280;31672;47.638;19.026;2022-09-09T23:09:34;99748.47;;;18.83;90.52
42761;BME280;31672;47.638;19.026;2022-09-09T23:14:37;99741.25;;;18.83;90.97
42761;BME280;31672;47.638;19.026;2022-09-09T23:19:40;99737.50;;;18.84;91.69
42761;BME280;31672;47.638;19.026;2022-09-09T23:24:43;99742.88;;;18.84;91.71
42761;BME280;31672;47.638;19.026;2022-09-09T23:29:46;99743.47;;;18.86;92.43
42761;BME280;31672;47.638;19.026;2022-09-09T23:34:50;99748.84;;;18.86;92.02
42761;BME280;31672;47.638;19.026;2022-09-09T23:39:53;99738.09;;;18.86;92.36
42761;BME280;31672;47.638;19.026;2022-09-09T23:44:56;99749.91;;;18.85;92.28
42761;BME280;31672;47.638;19.026;2022-09-09T23:49:59;99752.84;;;18.84;92.86
42761;BME280;31672;47.638;19.026;2022-09-09T23:55:02;99755.16;;;18.80;92.85
